createdAt,value
2022-08-14T00:00:46.507Z,19.73
2022-08-14T00:03:29.166Z,19.69
2022-08-14T00:06:01.536Z,19.67
2022-08-14T00:08:44.889Z,19.67
2022-08-14T00:11:03.976Z,19.72
2022-08-14T00:13:37.560Z,19.71
2022-08-14T00:16:08.334Z,19.67
2022-08-14T00:19:05.507Z,19.63
2022-08-14T00:21:11.610Z,19.66
2022-08-14T00:23:43.197Z,19.67
2022-08-14T00:26:23.028Z,19.61
2022-08-14T00:28:46.138Z,19.58
2022-08-14T00:31:17.361Z,19.60
2022-08-14T00:33:50.989Z,19.45
2022-08-14T00:36:36.496Z,19.56
2022-08-14T00:38:56.574Z,19.58
2022-08-14T00:41:33.457Z,19.55
2022-08-14T00:44:08.145Z,19.54
2022-08-14T00:46:45.175Z,19.55
2022-08-14T00:49:14.978Z,19.51
2022-08-14T00:51:45.582Z,19.40
2022-08-14T00:54:21.987Z,19.35
2022-08-14T00:56:56.105Z,19.32
2022-08-14T00:59:28.891Z,19.27
2022-08-14T01:02:00.466Z,19.23
2022-08-14T01:04:51.418Z,19.13
2022-08-14T01:07:04.999Z,19.10
2022-08-14T01:09:37.776Z,19.13
2022-08-14T01:12:10.852Z,19.15
2022-08-14T01:14:44.568Z,19.14
2022-08-14T01:17:15.885Z,19.17
2022-08-14T01:20:06.305Z,19.14
2022-08-14T01:22:37.492Z,19.09
2022-08-14T01:25:11.135Z,19.10
2022-08-14T01:27:56.932Z,19.10
2022-08-14T01:30:16.851Z,19.07
2022-08-14T01:32:51.147Z,19.01
2022-08-14T01:36:05.611Z,18.97
2022-08-14T01:37:56.428Z,18.94
2022-08-14T01:40:36.388Z,18.92
2022-08-14T01:43:14.791Z,18.81
2022-08-14T01:46:05.685Z,18.79
2022-08-14T01:48:20.812Z,18.80
2022-08-14T01:50:52.132Z,18.79
2022-08-14T01:53:25.269Z,18.76
2022-08-14T01:56:05.334Z,18.78
2022-08-14T01:58:37.964Z,18.78
2022-08-14T02:01:09.680Z,18.78
2022-08-14T02:03:42.802Z,18.77
2022-08-14T02:06:33.437Z,18.79
2022-08-14T02:08:52.674Z,18.77
2022-08-14T02:11:22.891Z,18.71
2022-08-14T02:14:07.005Z,18.69
2022-08-14T02:16:41.463Z,18.66
2022-08-14T02:19:15.141Z,18.68
2022-08-14T02:21:50.483Z,18.73
2022-08-14T02:24:39.618Z,18.76
2022-08-14T02:26:58.337Z,18.79
2022-08-14T02:29:27.216Z,18.73
2022-08-14T02:31:59.899Z,18.68
2022-08-14T02:34:32.578Z,18.68
2022-08-14T02:37:07.001Z,18.73
2022-08-14T02:39:38.311Z,18.82
2022-08-14T02:42:13.384Z,18.89
2022-08-14T02:44:42.287Z,18.90
2022-08-14T02:47:19.285Z,18.87
2022-08-14T02:49:54.799Z,18.84
2022-08-14T02:52:56.264Z,18.83
2022-08-14T02:54:55.947Z,18.83
2022-08-14T02:57:39.746Z,18.79
2022-08-14T02:59:58.315Z,18.75
2022-08-14T03:02:33.576Z,18.73
2022-08-14T03:05:02.019Z,18.71
2022-08-14T03:07:36.007Z,18.65
2022-08-14T03:10:25.850Z,18.57
2022-08-14T03:12:39.189Z,18.55
2022-08-14T03:15:14.365Z,18.53
2022-08-14T03:17:57.556Z,18.54
2022-08-14T03:20:15.165Z,18.51
2022-08-14T03:22:50.945Z,18.49
2022-08-14T03:25:23.603Z,18.41
2022-08-14T03:27:58.490Z,18.41
2022-08-14T03:30:39.444Z,18.39
2022-08-14T03:33:01.281Z,18.39
2022-08-14T03:35:40.370Z,18.36
2022-08-14T03:39:10.597Z,18.31
2022-08-14T03:40:41.747Z,18.26
2022-08-14T03:43:12.292Z,18.23
2022-08-14T03:45:48.061Z,18.23
2022-08-14T03:48:30.197Z,18.26
2022-08-14T03:50:53.491Z,18.24
2022-08-14T03:53:26.097Z,18.24
2022-08-14T03:55:57.007Z,18.22
2022-08-14T03:58:36.673Z,18.22
2022-08-14T04:00:57.515Z,18.15
2022-08-14T04:03:27.583Z,18.13
2022-08-14T04:05:59.951Z,18.10
2022-08-14T04:08:31.672Z,18.06
2022-08-14T04:11:02.994Z,17.97
2022-08-14T04:13:36.163Z,17.94
2022-08-14T04:16:13.085Z,17.92
2022-08-14T04:18:46.280Z,17.91
2022-08-14T04:21:22.815Z,17.90
2022-08-14T04:23:57.995Z,17.87
2022-08-14T04:26:43.178Z,17.87
2022-08-14T04:29:14.314Z,17.85
2022-08-14T04:32:58.020Z,17.84
2022-08-14T04:34:06.588Z,17.85
2022-08-14T04:36:42.268Z,17.85
2022-08-14T04:39:30.834Z,17.90
2022-08-14T04:42:24.839Z,17.92
2022-08-14T04:44:55.718Z,17.94
2022-08-14T04:47:46.390Z,17.99
2022-08-14T04:50:14.772Z,18.06
2022-08-14T04:52:44.196Z,18.15
2022-08-14T04:55:14.609Z,18.26
2022-08-14T04:57:43.937Z,18.32
2022-08-14T05:00:16.300Z,18.34
2022-08-14T05:02:45.991Z,18.37
2022-08-14T05:05:16.829Z,18.38
2022-08-14T05:07:54.577Z,18.41
2022-08-14T05:10:22.113Z,18.44
2022-08-14T05:13:24.384Z,18.53
2022-08-14T05:15:21.309Z,18.61
2022-08-14T05:17:58.744Z,18.71
2022-08-14T05:21:55.938Z,18.78
2022-08-14T05:22:56.141Z,18.91
2022-08-14T05:25:24.918Z,19.03
2022-08-14T05:27:57.735Z,19.16
2022-08-14T05:30:28.632Z,19.34
2022-08-14T05:32:59.509Z,19.42
2022-08-14T05:35:29.031Z,19.58
2022-08-14T05:38:01.823Z,19.71
2022-08-14T05:40:32.941Z,19.83
2022-08-14T05:43:03.166Z,19.95
2022-08-14T05:45:35.827Z,20.25
2022-08-14T05:48:07.523Z,20.70
2022-08-14T05:50:38.537Z,21.38
2022-08-14T05:53:09.663Z,22.12
2022-08-14T05:55:42.745Z,23.29
2022-08-14T05:58:10.279Z,23.63
2022-08-14T06:00:42.168Z,23.70
2022-08-14T06:03:15.673Z,24.85
2022-08-14T06:05:46.869Z,24.64
2022-08-14T06:08:36.615Z,23.72
2022-08-14T06:11:06.197Z,22.86
2022-08-14T06:13:45.197Z,22.28
2022-08-14T06:16:11.895Z,21.74
2022-08-14T06:18:41.336Z,21.79
2022-08-14T06:21:12.952Z,21.66
2022-08-14T06:23:43.098Z,21.55
2022-08-14T06:26:12.406Z,21.41
2022-08-14T06:28:45.633Z,21.49
2022-08-14T06:31:12.687Z,21.47
2022-08-14T06:35:02.717Z,21.59
2022-08-14T06:36:18.385Z,21.67
2022-08-14T06:38:45.977Z,21.72
2022-08-14T06:41:20.847Z,21.73
2022-08-14T06:43:48.227Z,21.72
2022-08-14T06:46:32.585Z,21.91
2022-08-14T06:48:50.980Z,22.02
2022-08-14T06:51:21.074Z,22.35
2022-08-14T06:53:51.581Z,23.07
2022-08-14T06:56:21.477Z,22.95
2022-08-14T06:58:51.334Z,22.73
2022-08-14T07:01:38.562Z,22.56
2022-08-14T07:04:26.466Z,22.45
2022-08-14T07:06:59.068Z,22.47
2022-08-14T07:09:44.234Z,22.59
2022-08-14T07:11:59.743Z,22.68
2022-08-14T07:14:30.699Z,22.73
2022-08-14T07:17:00.081Z,22.90
2022-08-14T07:19:30.485Z,23.01
2022-08-14T07:21:59.781Z,23.09
2022-08-14T07:24:31.409Z,23.23
2022-08-14T07:27:01.028Z,23.37
2022-08-14T07:29:30.284Z,23.39
2022-08-14T07:31:59.687Z,23.48
2022-08-14T07:34:40.544Z,23.63
2022-08-14T07:37:01.303Z,23.63
2022-08-14T07:39:30.823Z,23.51
2022-08-14T07:42:01.966Z,23.65
2022-08-14T07:44:45.952Z,23.82
2022-08-14T07:47:02.214Z,23.91
2022-08-14T07:49:34.189Z,23.95
2022-08-14T07:52:04.926Z,24.09
2022-08-14T07:54:34.187Z,24.19
2022-08-14T07:57:06.584Z,24.26
2022-08-14T07:59:40.845Z,24.45
2022-08-14T08:02:07.311Z,24.56
2022-08-14T08:04:40.705Z,24.46
2022-08-14T08:07:12.286Z,24.50
2022-08-14T08:09:45.697Z,24.77
2022-08-14T08:12:16.193Z,25.05
2022-08-14T08:14:56.872Z,25.08
2022-08-14T08:17:16.746Z,25.18
2022-08-14T08:19:51.426Z,25.27
2022-08-14T08:22:22.081Z,25.39
2022-08-14T08:24:51.344Z,25.41
2022-08-14T08:27:21.383Z,25.52
2022-08-14T08:29:51.309Z,25.64
2022-08-14T08:32:20.633Z,25.71
2022-08-14T08:34:51.883Z,25.85
2022-08-14T08:37:22.102Z,26.08
2022-08-14T08:40:01.376Z,26.06
2022-08-14T08:42:31.661Z,26.23
2022-08-14T08:44:58.381Z,26.30
2022-08-14T08:47:29.278Z,26.39
2022-08-14T08:49:59.702Z,26.33
2022-08-14T08:52:31.771Z,26.39
2022-08-14T08:55:04.518Z,26.54
2022-08-14T08:57:39.965Z,26.73
2022-08-14T09:00:24.495Z,26.91
2022-08-14T09:02:57.129Z,27.01
2022-08-14T09:05:27.343Z,27.14
2022-08-14T09:07:58.882Z,27.31
2022-08-14T09:10:28.198Z,27.27
2022-08-14T09:13:00.409Z,27.55
2022-08-14T09:15:42.430Z,27.59
2022-08-14T09:18:01.906Z,27.73
2022-08-14T09:20:32.188Z,28.05
2022-08-14T09:23:02.054Z,28.13
2022-08-14T09:25:59.650Z,28.21
2022-08-14T09:28:02.970Z,28.44
2022-08-14T09:30:35.117Z,28.60
2022-08-14T09:33:11.721Z,28.72
2022-08-14T09:36:15.104Z,29.02
2022-08-14T09:38:54.848Z,29.10
2022-08-14T09:42:21.827Z,29.29
2022-08-14T09:44:45.689Z,29.61
2022-08-14T09:47:16.473Z,29.93
2022-08-14T09:49:52.271Z,30.34
2022-08-14T09:52:23.718Z,31.40
2022-08-14T09:54:49.949Z,34.06
2022-08-14T09:57:29.050Z,35.03
2022-08-14T09:59:58.759Z,36.90
2022-08-14T10:02:32.361Z,37.22
2022-08-14T10:05:10.179Z,37.13
2022-08-14T10:07:49.582Z,38.36
2022-08-14T10:10:35.577Z,38.63
2022-08-14T10:13:24.591Z,39.50
2022-08-14T10:15:57.005Z,39.52
2022-08-14T10:18:28.873Z,39.00
2022-08-14T10:21:00.876Z,38.58
2022-08-14T10:23:43.073Z,38.55
2022-08-14T10:26:22.684Z,38.68
2022-08-14T10:29:17.840Z,38.16
2022-08-14T10:31:25.477Z,38.02
2022-08-14T10:34:04.194Z,37.91
2022-08-14T10:36:40.946Z,37.98
2022-08-14T10:39:21.179Z,38.38
2022-08-14T10:41:54.107Z,38.17
2022-08-14T10:44:24.865Z,38.01
2022-08-14T10:47:39.224Z,37.67
2022-08-14T10:49:31.322Z,38.36
2022-08-14T10:52:09.566Z,38.31
2022-08-14T10:54:44.177Z,38.56
2022-08-14T10:57:24.400Z,39.07
2022-08-14T10:59:59.612Z,39.76
2022-08-14T11:02:54.536Z,39.49
2022-08-14T11:05:12.927Z,38.55
2022-08-14T11:08:00.814Z,39.42
2022-08-14T11:10:45.254Z,40.50
2022-08-14T11:13:19.711Z,39.81
2022-08-14T11:15:50.549Z,39.93
2022-08-14T11:18:30.237Z,40.60
2022-08-14T11:20:55.510Z,40.72
2022-08-14T11:23:37.840Z,41.47
2022-08-14T11:26:07.085Z,41.48
2022-08-14T11:28:48.003Z,40.79
2022-08-14T11:31:16.732Z,41.30
2022-08-14T11:33:52.655Z,40.83
2022-08-14T11:37:02.797Z,40.32
2022-08-14T11:38:58.283Z,41.38
2022-08-14T11:41:28.064Z,41.23
2022-08-14T11:43:58.338Z,41.02
2022-08-14T11:46:30.816Z,41.94
2022-08-14T11:49:04.922Z,40.89
2022-08-14T11:51:50.774Z,41.36
2022-08-14T11:54:06.317Z,40.36
2022-08-14T11:56:41.992Z,39.89
2022-08-14T11:59:18.037Z,40.28
2022-08-14T12:01:48.751Z,40.47
2022-08-14T12:04:32.467Z,39.84
2022-08-14T12:06:53.668Z,40.07
2022-08-14T12:09:34.391Z,40.38
2022-08-14T12:12:16.300Z,39.95
2022-08-14T12:14:59.993Z,37.89
2022-08-14T12:17:31.943Z,38.64
2022-08-14T12:20:05.974Z,38.83
2022-08-14T12:22:37.305Z,39.14
2022-08-14T12:25:11.326Z,40.03
2022-08-14T12:27:52.407Z,39.89
2022-08-14T12:30:42.562Z,40.72
2022-08-14T12:33:09.611Z,39.40
2022-08-14T12:35:42.641Z,38.79
2022-08-14T12:38:19.515Z,39.42
2022-08-14T12:40:50.701Z,39.71
2022-08-14T12:43:21.887Z,38.44
2022-08-14T12:45:51.416Z,39.31
2022-08-14T12:48:31.580Z,39.65
2022-08-14T12:50:53.240Z,39.96
2022-08-14T12:53:22.626Z,39.86
2022-08-14T12:56:22.286Z,38.61
2022-08-14T12:58:51.584Z,38.39
2022-08-14T13:01:17.207Z,39.81
2022-08-14T13:03:37.631Z,39.79
2022-08-14T13:06:10.156Z,37.58
2022-08-14T13:08:46.061Z,35.78
2022-08-14T13:11:14.990Z,36.63
2022-08-14T13:13:45.997Z,37.24
2022-08-14T13:16:20.991Z,36.64
2022-08-14T13:18:48.126Z,37.16
2022-08-14T13:21:19.143Z,35.62
2022-08-14T13:23:50.168Z,34.94
2022-08-14T13:26:19.894Z,35.72
2022-08-14T13:29:02.669Z,35.72
2022-08-14T13:31:24.621Z,35.82
2022-08-14T13:33:56.331Z,36.19
2022-08-14T13:36:54.915Z,36.61
2022-08-14T13:39:00.831Z,36.50
2022-08-14T13:41:31.671Z,36.55
2022-08-14T13:44:01.739Z,36.59
2022-08-14T13:46:33.051Z,36.45
2022-08-14T13:49:02.473Z,36.09
2022-08-14T13:51:34.636Z,35.09
2022-08-14T13:54:10.811Z,34.80
2022-08-14T13:56:40.560Z,34.90
2022-08-14T13:59:10.550Z,34.88
2022-08-14T14:01:43.248Z,34.76
2022-08-14T14:04:18.839Z,34.55
2022-08-14T14:06:49.228Z,34.47
2022-08-14T14:09:21.653Z,34.86
2022-08-14T14:11:53.020Z,35.41
2022-08-14T14:14:44.567Z,35.49
2022-08-14T14:16:56.041Z,34.63
2022-08-14T14:19:27.095Z,34.76
2022-08-14T14:21:58.695Z,34.85
2022-08-14T14:24:34.804Z,35.25
2022-08-14T14:27:13.622Z,35.25
2022-08-14T14:29:34.639Z,34.44
2022-08-14T14:32:06.383Z,34.93
2022-08-14T14:34:39.378Z,34.92
2022-08-14T14:37:12.218Z,34.71
2022-08-14T14:40:53.622Z,34.65
2022-08-14T14:42:18.333Z,34.53
2022-08-14T14:44:46.650Z,34.69
2022-08-14T14:47:22.756Z,34.66
2022-08-14T14:49:55.192Z,34.57
2022-08-14T14:52:27.144Z,34.55
2022-08-14T14:54:53.936Z,34.42
2022-08-14T14:57:26.691Z,34.34
2022-08-14T14:59:54.452Z,34.34
2022-08-14T15:02:29.992Z,34.38
2022-08-14T15:04:59.257Z,34.26
2022-08-14T15:07:29.791Z,33.97
2022-08-14T15:09:59.555Z,33.77
2022-08-14T15:12:52.164Z,33.77
2022-08-14T15:15:08.070Z,33.51
2022-08-14T15:17:35.328Z,33.52
2022-08-14T15:20:07.045Z,33.44
2022-08-14T15:22:43.574Z,33.12
2022-08-14T15:25:14.719Z,33.23
2022-08-14T15:27:47.379Z,33.42
2022-08-14T15:30:23.995Z,33.48
2022-08-14T15:32:53.231Z,33.78
2022-08-14T15:35:25.627Z,33.71
2022-08-14T15:37:55.761Z,33.95
2022-08-14T15:40:25.745Z,33.93
2022-08-14T15:42:55.022Z,34.00
2022-08-14T15:45:25.412Z,33.86
2022-08-14T15:47:56.436Z,33.73
2022-08-14T15:50:28.442Z,33.63
2022-08-14T15:52:57.913Z,33.46
2022-08-14T15:55:27.188Z,32.92
2022-08-14T15:58:03.180Z,32.87
2022-08-14T16:00:49.413Z,32.74
2022-08-14T16:03:18.377Z,32.68
2022-08-14T16:05:49.466Z,32.61
2022-08-14T16:08:29.616Z,32.44
2022-08-14T16:10:50.050Z,32.50
2022-08-14T16:13:39.584Z,32.49
2022-08-14T16:15:53.775Z,32.36
2022-08-14T16:18:24.263Z,32.23
2022-08-14T16:20:55.208Z,32.21
2022-08-14T16:23:26.612Z,32.17
2022-08-14T16:25:59.483Z,32.12
2022-08-14T16:28:32.085Z,31.85
2022-08-14T16:31:02.151Z,31.84
2022-08-14T16:34:00.051Z,31.78
2022-08-14T16:36:05.057Z,31.82
2022-08-14T16:38:46.209Z,31.77
2022-08-14T16:41:17.247Z,31.75
2022-08-14T16:43:47.683Z,31.68
2022-08-14T16:46:21.999Z,31.54
2022-08-14T16:48:57.566Z,31.49
2022-08-14T16:51:22.924Z,31.36
2022-08-14T16:53:54.751Z,31.34
2022-08-14T16:56:28.155Z,31.28
2022-08-14T16:59:14.337Z,31.16
2022-08-14T17:01:45.971Z,31.21
2022-08-14T17:04:24.893Z,31.09
2022-08-14T17:06:52.839Z,31.08
2022-08-14T17:09:32.372Z,31.03
2022-08-14T17:12:07.518Z,31.03
2022-08-14T17:14:55.291Z,31.11
2022-08-14T17:17:43.629Z,31.13
2022-08-14T17:20:54.503Z,31.08
2022-08-14T17:22:55.972Z,30.99
2022-08-14T17:25:30.101Z,30.96
2022-08-14T17:30:56.790Z,30.81
2022-08-14T17:33:33.658Z,30.79
2022-08-14T17:36:20.791Z,30.67
2022-08-14T17:39:07.955Z,30.52
2022-08-14T17:41:43.331Z,30.35
2022-08-14T17:44:21.380Z,30.18
2022-08-14T17:47:01.926Z,29.99
2022-08-14T17:49:40.436Z,29.93
2022-08-14T17:52:17.174Z,29.84
2022-08-14T17:54:59.023Z,29.62
2022-08-14T17:57:30.350Z,29.47
2022-08-14T18:00:01.805Z,29.25
2022-08-14T18:02:35.414Z,29.06
2022-08-14T18:05:08.223Z,28.88
2022-08-14T18:07:59.625Z,28.71
2022-08-14T18:10:52.720Z,28.61
2022-08-14T18:12:43.975Z,28.50
2022-08-14T18:15:18.735Z,28.35
2022-08-14T18:17:53.899Z,28.26
2022-08-14T18:21:39.577Z,28.24
2022-08-14T18:22:56.501Z,28.07
2022-08-14T18:25:29.198Z,27.93
2022-08-14T18:27:59.442Z,27.68
2022-08-14T18:30:36.468Z,27.49
2022-08-14T18:33:04.360Z,27.32
2022-08-14T18:35:56.804Z,27.29
2022-08-14T18:38:55.210Z,27.21
2022-08-14T18:40:59.419Z,27.16
2022-08-14T18:43:44.694Z,27.09
2022-08-14T18:46:59.912Z,26.99
2022-08-14T18:48:50.941Z,26.87
2022-08-14T18:51:20.536Z,26.82
2022-08-14T18:53:55.706Z,26.74
2022-08-14T18:57:00.217Z,26.66
2022-08-14T18:59:35.454Z,26.49
2022-08-14T19:02:32.157Z,26.18
2022-08-14T19:05:03.074Z,26.18
2022-08-14T19:07:33.906Z,26.06
2022-08-14T19:10:16.838Z,25.95
2022-08-14T19:13:01.274Z,25.85
2022-08-14T19:15:36.377Z,25.71
2022-08-14T19:18:26.406Z,25.57
2022-08-14T19:21:00.100Z,25.56
2022-08-14T19:23:43.266Z,25.51
2022-08-14T19:26:36.075Z,25.35
2022-08-14T19:28:48.527Z,25.24
2022-08-14T19:31:42.007Z,25.12
2022-08-14T19:34:06.860Z,24.95
2022-08-14T19:37:05.965Z,24.89
2022-08-14T19:39:55.069Z,24.85
2022-08-14T19:42:28.476Z,24.81
2022-08-14T19:44:58.798Z,24.80
2022-08-14T19:47:41.570Z,24.75
2022-08-14T19:50:38.218Z,24.72
2022-08-14T19:52:42.059Z,24.64
2022-08-14T19:55:18.187Z,24.62
2022-08-14T19:57:57.878Z,24.59
2022-08-14T20:00:29.272Z,24.50
2022-08-14T20:02:53.460Z,24.44
2022-08-14T20:05:24.671Z,24.41
2022-08-14T20:09:05.532Z,24.42
2022-08-14T20:11:12.582Z,24.43
2022-08-14T20:13:12.542Z,24.42
2022-08-14T20:15:47.335Z,24.39
2022-08-14T20:18:45.936Z,24.35
2022-08-14T20:20:46.298Z,24.28
2022-08-14T20:23:19.008Z,24.29
2022-08-14T20:25:56.541Z,24.29
2022-08-14T20:28:29.667Z,24.24
2022-08-14T20:31:19.693Z,24.24
2022-08-14T20:34:19.219Z,24.20
2022-08-14T20:36:41.304Z,24.07
2022-08-14T20:39:15.063Z,23.93
2022-08-14T20:41:48.945Z,23.82
2022-08-14T20:44:40.153Z,23.76
2022-08-14T20:47:11.951Z,23.65
2022-08-14T20:49:43.083Z,23.57
2022-08-14T20:52:19.302Z,23.52
2022-08-14T20:54:50.439Z,23.46
2022-08-14T20:57:17.925Z,23.40
2022-08-14T20:59:53.701Z,23.36
2022-08-14T21:02:50.217Z,23.32
2022-08-14T21:05:17.233Z,23.20
2022-08-14T21:07:44.400Z,23.07
2022-08-14T21:10:34.216Z,22.97
2022-08-14T21:13:26.725Z,22.90
2022-08-14T21:15:21.211Z,22.83
2022-08-14T21:17:51.678Z,22.83
2022-08-14T21:20:25.593Z,22.77
2022-08-14T21:22:52.131Z,22.81
2022-08-14T21:25:22.016Z,22.80
2022-08-14T21:27:56.784Z,22.81
2022-08-14T21:30:51.254Z,22.78
2022-08-14T21:32:58.189Z,22.79
2022-08-14T21:35:25.862Z,22.84
2022-08-14T21:37:55.642Z,22.84
2022-08-14T21:40:42.204Z,22.86
2022-08-14T21:43:02.382Z,22.84
2022-08-14T21:45:35.444Z,22.77
2022-08-14T21:48:10.515Z,22.77
2022-08-14T21:50:39.819Z,22.75
2022-08-14T21:53:06.727Z,22.73
2022-08-14T21:55:37.386Z,22.77
2022-08-14T21:58:52.332Z,22.86
2022-08-14T22:00:42.403Z,22.92
2022-08-14T22:03:19.154Z,22.98
2022-08-14T22:05:52.009Z,22.91
2022-08-14T22:08:26.876Z,22.85
2022-08-14T22:10:54.063Z,22.91
2022-08-14T22:13:32.479Z,22.92
2022-08-14T22:16:02.381Z,22.90
2022-08-14T22:18:31.267Z,22.85
2022-08-14T22:21:05.587Z,22.74
2022-08-14T22:23:35.496Z,22.68
2022-08-14T22:26:07.848Z,22.64
2022-08-14T22:28:38.694Z,22.64
2022-08-14T22:31:18.313Z,22.64
2022-08-14T22:33:44.333Z,22.67
2022-08-14T22:36:42.286Z,22.72
2022-08-14T22:39:10.991Z,22.79
2022-08-14T22:41:42.437Z,22.88
2022-08-14T22:44:16.622Z,22.94
2022-08-14T22:46:46.490Z,22.95
2022-08-14T22:50:29.441Z,22.88
2022-08-14T22:51:48.929Z,22.90
2022-08-14T22:54:52.193Z,22.86
2022-08-14T22:56:49.892Z,22.81
2022-08-14T22:59:20.548Z,22.80
2022-08-14T23:01:58.710Z,22.71
2022-08-14T23:04:35.729Z,22.70
2022-08-14T23:09:42.875Z,22.70
2022-08-14T23:12:28.621Z,22.76
2022-08-14T23:14:44.903Z,22.80
2022-08-14T23:17:17.604Z,22.86
2022-08-14T23:19:48.265Z,22.96
2022-08-14T23:22:21.583Z,23.18
2022-08-14T23:24:56.819Z,23.42
2022-08-14T23:27:31.930Z,23.61
2022-08-14T23:29:59.175Z,23.79
2022-08-14T23:32:30.200Z,23.95
2022-08-14T23:35:01.045Z,23.98
2022-08-14T23:37:31.988Z,23.87
2022-08-14T23:40:04.985Z,24.11
2022-08-14T23:42:40.934Z,24.12
2022-08-14T23:45:15.605Z,24.10
2022-08-14T23:47:52.094Z,24.12
2022-08-14T23:50:34.145Z,24.15
2022-08-14T23:53:06.872Z,24.18
2022-08-14T23:55:25.094Z,24.19
2022-08-14T23:57:57.498Z,24.21
